sensor_id;sensor_type;location;lat;lon;timestamp;pressure;altitude;pressure_sealevel;temperature;humidity
2681;BME280;1350;42.134;24.708;2023-12-20T00:00:21;99815.88;;;4.20;100.00
2681;BME280;1350;42.134;24.708;2023-12-20T00:02:48;99814.19;;;4.19;100.00
2681;BME280;1350;42.134;24.708;2023-12-20T00:05:15;99814.34;;;4.11;100.00
2681;BME280;1350;42.134;24.708;2023-12-20T00:07:42;99820.41;;;4.15;100.00
2681;BME280;1350;42.134;24.708;2023-12-20T00:10:10;99818.69;;;4.12;100.00
2681;BME280;1350;42.134;24.708;2023-12-20T00:12:38;99822.50;;;3.99;100.00
2681;BME280;1350;42.134;24.708;2023-12-20T00:15:08;99806.19;;;4.23;100.00
2681;BME280;1350;42.134;24.708;2023-12-20T00:17:35;99804.38;;;4.27;100.00
2681;BME280;1350;42.134;24.708;2023-12-20T00:20:02;99812.84;;;4.01;100.00
2681;BME280;1350;42.134;24.708;2023-12-20T00:22:31;99816.34;;;4.00;100.00
2681;BME280;1350;42.134;24.708;2023-12-20T00:24:58;99816.63;;;3.88;100.00
2681;BME280;1350;42.134;24.708;2023-12-20T00:27:25;99815.78;;;3.86;100.00
2681;BME280;1350;42.134;24.708;2023-12-20T00:29:52;99803.91;;;3.70;100.00
2681;BME280;1350;42.134;24.708;2023-12-20T00:32:20;99801.47;;;3.63;100.00
2681;BME280;1350;42.134;24.708;2023-12-20T00:34:47;99807.50;;;3.65;100.00
2681;BME280;1350;42.134;24.708;2023-12-20T00:37:14;99791.34;;;3.44;100.00
2681;BME280;1350;42.134;24.708;2023-12-20T00:39:41;99782.53;;;3.48;100.00
2681;BME280;1350;42.134;24.708;2023-12-20T00:42:09;99776.41;;;3.48;100.00
2681;BME280;1350;42.134;24.708;2023-12-20T00:44:36;99781.66;;;3.48;100.00
2681;BME280;1350;42.134;24.708;2023-12-20T00:47:03;99782.31;;;3.59;100.00
2681;BME280;1350;42.134;24.708;2023-12-20T00:49:31;99775.47;;;3.52;100.00
2681;BME280;1350;42.134;24.708;2023-12-20T00:51:59;99767.16;;;3.32;100.00
2681;BME280;1350;42.134;24.708;2023-12-20T00:54:25;99768.72;;;3.40;100.00
2681;BME280;1350;42.134;24.708;2023-12-20T00:56:52;99765.16;;;3.43;100.00
2681;BME280;1350;42.134;24.708;2023-12-20T00:59:19;99756.63;;;3.35;100.00
2681;BME280;1350;42.134;24.708;2023-12-20T01:01:46;99756.88;;;3.21;100.00
2681;BME280;1350;42.134;24.708;2023-12-20T01:04:13;99757.94;;;3.13;100.00
2681;BME280;1350;42.134;24.708;2023-12-20T01:06:42;99745.88;;;3.06;100.00
2681;BME280;1350;42.134;24.708;2023-12-20T01:09:09;99746.97;;;2.94;100.00
2681;BME280;1350;42.134;24.708;2023-12-20T01:11:36;99743.66;;;2.83;100.00
2681;BME280;1350;42.134;24.708;2023-12-20T01:14:03;99744.63;;;2.79;100.00
2681;BME280;1350;42.134;24.708;2023-12-20T01:16:30;99727.63;;;3.00;100.00
2681;BME280;1350;42.134;24.708;2023-12-20T01:18:57;99729.53;;;2.93;100.00
2681;BME280;1350;42.134;24.708;2023-12-20T01:21:24;99723.19;;;3.03;100.00
2681;BME280;1350;42.134;24.708;2023-12-20T01:23:52;99728.59;;;2.96;100.00
2681;BME280;1350;42.134;24.708;2023-12-20T01:26:19;99725.84;;;3.02;100.00
2681;BME280;1350;42.134;24.708;2023-12-20T01:28:46;99724.00;;;3.08;100.00
2681;BME280;1350;42.134;24.708;2023-12-20T01:31:13;99720.66;;;3.00;100.00
2681;BME280;1350;42.134;24.708;2023-12-20T01:33:40;99712.75;;;3.02;100.00
2681;BME280;1350;42.134;24.708;2023-12-20T01:36:07;99713.94;;;2.87;100.00
2681;BME280;1350;42.134;24.708;2023-12-20T01:38:34;99717.78;;;2.68;100.00
2681;BME280;1350;42.134;24.708;2023-12-20T01:41:02;99719.44;;;2.72;100.00
2681;BME280;1350;42.134;24.708;2023-12-20T01:43:30;99711.81;;;2.62;100.00
2681;BME280;1350;42.134;24.708;2023-12-20T01:45:57;99712.78;;;2.56;100.00
2681;BME280;1350;42.134;24.708;2023-12-20T01:48:25;99707.19;;;2.76;100.00
2681;BME280;1350;42.134;24.708;2023-12-20T01:50:52;99704.56;;;2.76;100.00
2681;BME280;1350;42.134;24.708;2023-12-20T01:53:21;99701.84;;;2.80;100.00
2681;BME280;1350;42.134;24.708;2023-12-20T01:55:50;99699.25;;;2.79;100.00
2681;BME280;1350;42.134;24.708;2023-12-20T01:58:20;99689.69;;;2.78;100.00
2681;BME280;1350;42.134;24.708;2023-12-20T02:00:48;99694.19;;;2.71;100.00
2681;BME280;1350;42.134;24.708;2023-12-20T02:03:16;99689.94;;;2.66;100.00
2681;BME280;1350;42.134;24.708;2023-12-20T02:05:44;99674.22;;;2.67;100.00
2681;BME280;1350;42.134;24.708;2023-12-20T02:08:12;99684.88;;;2.57;100.00
2681;BME280;1350;42.134;24.708;2023-12-20T02:10:39;99679.94;;;2.40;100.00
2681;BME280;1350;42.134;24.708;2023-12-20T02:13:07;99676.41;;;2.43;100.00
2681;BME280;1350;42.134;24.708;2023-12-20T02:15:36;99677.47;;;2.33;100.00
2681;BME280;1350;42.134;24.708;2023-12-20T02:18:04;99675.00;;;2.24;100.00
2681;BME280;1350;42.134;24.708;2023-12-20T02:20:31;99667.28;;;2.18;100.00
2681;BME280;1350;42.134;24.708;2023-12-20T02:22:59;99663.41;;;2.40;100.00
2681;BME280;1350;42.134;24.708;2023-12-20T02:25:26;99667.91;;;2.32;100.00
2681;BME280;1350;42.134;24.708;2023-12-20T02:27:53;99658.28;;;2.32;100.00
2681;BME280;1350;42.134;24.708;2023-12-20T02:30:20;99654.78;;;2.33;100.00
2681;BME280;1350;42.134;24.708;2023-12-20T02:32:48;99650.28;;;2.41;100.00
2681;BME280;1350;42.134;24.708;2023-12-20T02:35:16;99653.72;;;2.43;100.00
2681;BME280;1350;42.134;24.708;2023-12-20T02:37:43;99651.25;;;2.36;100.00
2681;BME280;1350;42.134;24.708;2023-12-20T02:40:12;99656.81;;;2.18;100.00
2681;BME280;1350;42.134;24.708;2023-12-20T02:42:38;99659.47;;;2.15;100.00
2681;BME280;1350;42.134;24.708;2023-12-20T02:45:07;99655.94;;;2.17;100.00
2681;BME280;1350;42.134;24.708;2023-12-20T02:47:34;99644.09;;;1.98;100.00
2681;BME280;1350;42.134;24.708;2023-12-20T02:50:01;99636.34;;;1.92;100.00
2681;BME280;1350;42.134;24.708;2023-12-20T02:52:29;99640.22;;;1.68;100.00
2681;BME280;1350;42.134;24.708;2023-12-20T02:54:55;99628.75;;;1.77;100.00
2681;BME280;1350;42.134;24.708;2023-12-20T02:57:24;99624.81;;;2.04;100.00
2681;BME280;1350;42.134;24.708;2023-12-20T02:59:51;99621.56;;;2.38;100.00
2681;BME280;1350;42.134;24.708;2023-12-20T03:02:18;99628.66;;;2.32;100.00
2681;BME280;1350;42.134;24.708;2023-12-20T03:04:45;99628.72;;;2.29;100.00
2681;BME280;1350;42.134;24.708;2023-12-20T03:07:12;99620.72;;;2.36;100.00
2681;BME280;1350;42.134;24.708;2023-12-20T03:09:39;99612.63;;;2.48;100.00
2681;BME280;1350;42.134;24.708;2023-12-20T03:12:06;99618.53;;;2.59;100.00
2681;BME280;1350;42.134;24.708;2023-12-20T03:14:34;99623.03;;;2.51;100.00
2681;BME280;1350;42.134;24.708;2023-12-20T03:17:01;99615.50;;;2.36;100.00
2681;BME280;1350;42.134;24.708;2023-12-20T03:19:28;99624.78;;;2.51;100.00
2681;BME280;1350;42.134;24.708;2023-12-20T03:21:55;99616.47;;;2.31;100.00
2681;BME280;1350;42.134;24.708;2023-12-20T03:24:22;99611.13;;;2.37;100.00
2681;BME280;1350;42.134;24.708;2023-12-20T03:26:49;99611.34;;;2.25;100.00
2681;BME280;1350;42.134;24.708;2023-12-20T03:29:16;99612.25;;;2.24;100.00
2681;BME280;1350;42.134;24.708;2023-12-20T03:31:44;99604.66;;;2.54;100.00
2681;BME280;1350;42.134;24.708;2023-12-20T03:34:12;99604.66;;;2.54;100.00
2681;BME280;1350;42.134;24.708;2023-12-20T03:36:39;99606.44;;;2.52;100.00
2681;BME280;1350;42.134;24.708;2023-12-20T03:39:07;99599.22;;;2.65;100.00
2681;BME280;1350;42.134;24.708;2023-12-20T03:41:35;99605.75;;;2.44;100.00
2681;BME280;1350;42.134;24.708;2023-12-20T03:44:02;99595.06;;;2.55;100.00
2681;BME280;1350;42.134;24.708;2023-12-20T03:46:29;99599.44;;;2.54;100.00
2681;BME280;1350;42.134;24.708;2023-12-20T03:48:58;99600.44;;;2.49;100.00
2681;BME280;1350;42.134;24.708;2023-12-20T03:51:25;99604.03;;;2.42;100.00
2681;BME280;1350;42.134;24.708;2023-12-20T03:53:51;99604.94;;;2.41;100.00
2681;BME280;1350;42.134;24.708;2023-12-20T03:56:18;99607.72;;;2.33;100.00
2681;BME280;1350;42.134;24.708;2023-12-20T03:58:45;99608.22;;;2.05;100.00
2681;BME280;1350;42.134;24.708;2023-12-20T04:01:12;99604.78;;;2.04;100.00
2681;BME280;1350;42.134;24.708;2023-12-20T04:03:39;99606.94;;;1.80;100.00
2681;BME280;1350;42.134;24.708;2023-12-20T04:06:08;99595.25;;;2.00;100.00
2681;BME280;1350;42.134;24.708;2023-12-20T04:08:35;99587.94;;;2.19;100.00
2681;BME280;1350;42.134;24.708;2023-12-20T04:11:02;99586.88;;;2.29;100.00
2681;BME280;1350;42.134;24.708;2023-12-20T04:13:29;99588.78;;;2.19;100.00
2681;BME280;1350;42.134;24.708;2023-12-20T04:15:56;99599.91;;;2.30;100.00
2681;BME280;1350;42.134;24.708;2023-12-20T04:18:23;99593.19;;;2.17;100.00
2681;BME280;1350;42.134;24.708;2023-12-20T04:20:49;99594.22;;;2.09;100.00
2681;BME280;1350;42.134;24.708;2023-12-20T04:23:18;99595.97;;;2.08;100.00
2681;BME280;1350;42.134;24.708;2023-12-20T04:25:45;99593.59;;;1.96;100.00
2681;BME280;1350;42.134;24.708;2023-12-20T04:28:12;99590.13;;;1.94;100.00
2681;BME280;1350;42.134;24.708;2023-12-20T04:30:39;99599.84;;;1.86;100.00
2681;BME280;1350;42.134;24.708;2023-12-20T04:33:06;99588.56;;;1.86;100.00
2681;BME280;1350;42.134;24.708;2023-12-20T04:35:33;99588.19;;;1.56;100.00
2681;BME280;1350;42.134;24.708;2023-12-20T04:38:00;99585.47;;;1.62;100.00
2681;BME280;1350;42.134;24.708;2023-12-20T04:40:28;99580.53;;;1.95;100.00
2681;BME280;1350;42.134;24.708;2023-12-20T04:42:55;99580.75;;;1.84;100.00
2681;BME280;1350;42.134;24.708;2023-12-20T04:45:22;99572.28;;;1.70;100.00
2681;BME280;1350;42.134;24.708;2023-12-20T04:47:51;99566.91;;;1.77;100.00
2681;BME280;1350;42.134;24.708;2023-12-20T04:50:18;99565.13;;;1.81;100.00
2681;BME280;1350;42.134;24.708;2023-12-20T04:52:45;99572.28;;;1.68;100.00
2681;BME280;1350;42.134;24.708;2023-12-20T04:55:12;99569.06;;;1.53;100.00
2681;BME280;1350;42.134;24.708;2023-12-20T04:57:40;99573.72;;;1.36;100.00
2681;BME280;1350;42.134;24.708;2023-12-20T05:00:09;99567.34;;;1.53;100.00
2681;BME280;1350;42.134;24.708;2023-12-20T05:02:36;99574.34;;;1.50;100.00
2681;BME280;1350;42.134;24.708;2023-12-20T05:05:03;99565.00;;;1.35;100.00
2681;BME280;1350;42.134;24.708;2023-12-20T05:07:30;99565.28;;;1.17;100.00
2681;BME280;1350;42.134;24.708;2023-12-20T05:09:58;99564.44;;;1.18;100.00
2681;BME280;1350;42.134;24.708;2023-12-20T05:12:25;99557.53;;;1.13;100.00
2681;BME280;1350;42.134;24.708;2023-12-20T05:14:53;99554.59;;;1.32;100.00
2681;BME280;1350;42.134;24.708;2023-12-20T05:17:20;99549.47;;;1.26;100.00
2681;BME280;1350;42.134;24.708;2023-12-20T05:19:47;99547.69;;;1.30;100.00
2681;BME280;1350;42.134;24.708;2023-12-20T05:22:14;99539.56;;;1.46;100.00
2681;BME280;1350;42.134;24.708;2023-12-20T05:28:03;99539.50;;;1.51;100.00
2681;BME280;1350;42.134;24.708;2023-12-20T05:30:32;99541.28;;;1.49;100.00
2681;BME280;1350;42.134;24.708;2023-12-20T05:32:59;99537.72;;;1.53;100.00
2681;BME280;1350;42.134;24.708;2023-12-20T05:35:26;99536.81;;;1.54;100.00
2681;BME280;1350;42.134;24.708;2023-12-20T05:37:53;99532.47;;;1.54;100.00
2681;BME280;1350;42.134;24.708;2023-12-20T05:40:20;99529.88;;;1.54;100.00
2681;BME280;1350;42.134;24.708;2023-12-20T05:42:47;99524.50;;;1.62;100.00
2681;BME280;1350;42.134;24.708;2023-12-20T05:45:15;99521.06;;;1.60;100.00
2681;BME280;1350;42.134;24.708;2023-12-20T05:47:43;99515.78;;;1.63;100.00
2681;BME280;1350;42.134;24.708;2023-12-20T05:50:10;99511.25;;;1.72;100.00
2681;BME280;1350;42.134;24.708;2023-12-20T05:52:37;99517.44;;;1.68;100.00
2681;BME280;1350;42.134;24.708;2023-12-20T05:55:04;99516.59;;;1.66;100.00
2681;BME280;1350;42.134;24.708;2023-12-20T05:57:31;99507.97;;;1.61;100.00
2681;BME280;1350;42.134;24.708;2023-12-20T05:59:58;99508.88;;;2.05;100.00
2681;BME280;1350;42.134;24.708;2023-12-20T06:02:25;99498.91;;;3.02;100.00
2681;BME280;1350;42.134;24.708;2023-12-20T06:04:54;99510.63;;;4.22;100.00
2681;BME280;1350;42.134;24.708;2023-12-20T06:07:21;99517.97;;;5.24;100.00
2681;BME280;1350;42.134;24.708;2023-12-20T06:09:48;99528.44;;;6.04;100.00
2681;BME280;1350;42.134;24.708;2023-12-20T06:12:15;99521.78;;;6.43;100.00
2681;BME280;1350;42.134;24.708;2023-12-20T06:14:42;99530.75;;;7.07;100.00
2681;BME280;1350;42.134;24.708;2023-12-20T06:17:09;99537.22;;;7.63;97.02
2681;BME280;1350;42.134;24.708;2023-12-20T06:19:36;99535.38;;;7.87;93.04
2681;BME280;1350;42.134;24.708;2023-12-20T06:22:04;99533.75;;;8.63;89.19
2681;BME280;1350;42.134;24.708;2023-12-20T06:24:31;99520.25;;;9.25;84.91
2681;BME280;1350;42.134;24.708;2023-12-20T06:26:59;99519.66;;;10.06;78.77
2681;BME280;1350;42.134;24.708;2023-12-20T06:29:26;99519.50;;;9.92;75.84
2681;BME280;1350;42.134;24.708;2023-12-20T06:31:53;99511.41;;;10.30;72.26
2681;BME280;1350;42.134;24.708;2023-12-20T06:34:20;99509.41;;;10.83;68.07
2681;BME280;1350;42.134;24.708;2023-12-20T06:36:47;99512.22;;;10.47;68.36
2681;BME280;1350;42.134;24.708;2023-12-20T06:39:15;99523.69;;;10.48;68.33
2681;BME280;1350;42.134;24.708;2023-12-20T06:41:42;99530.13;;;10.76;66.96
2681;BME280;1350;42.134;24.708;2023-12-20T06:44:09;99520.25;;;10.78;66.84
2681;BME280;1350;42.134;24.708;2023-12-20T06:46:36;99512.88;;;10.35;68.81
2681;BME280;1350;42.134;24.708;2023-12-20T06:49:03;99515.34;;;11.03;68.71
2681;BME280;1350;42.134;24.708;2023-12-20T06:51:31;99506.22;;;11.85;63.59
2681;BME280;1350;42.134;24.708;2023-12-20T06:53:58;99514.97;;;12.45;60.12
2681;BME280;1350;42.134;24.708;2023-12-20T06:56:27;99504.84;;;12.65;58.26
2681;BME280;1350;42.134;24.708;2023-12-20T06:58:54;99507.56;;;12.78;58.00
2681;BME280;1350;42.134;24.708;2023-12-20T07:01:21;99499.16;;;13.40;56.43
2681;BME280;1350;42.134;24.708;2023-12-20T07:03:48;99501.97;;;13.78;55.57
2681;BME280;1350;42.134;24.708;2023-12-20T07:06:14;99501.59;;;14.09;54.19
2681;BME280;1350;42.134;24.708;2023-12-20T07:08:42;99501.38;;;14.51;53.31
2681;BME280;1350;42.134;24.708;2023-12-20T07:11:09;99495.84;;;14.15;52.77
2681;BME280;1350;42.134;24.708;2023-12-20T07:13:37;99502.72;;;14.44;52.20
2681;BME280;1350;42.134;24.708;2023-12-20T07:16:05;99493.34;;;14.38;52.16
2681;BME280;1350;42.134;24.708;2023-12-20T07:18:32;99486.50;;;14.47;51.96
2681;BME280;1350;42.134;24.708;2023-12-20T07:20:59;99486.19;;;14.64;51.43
2681;BME280;1350;42.134;24.708;2023-12-20T07:23:25;99479.97;;;14.88;51.21
2681;BME280;1350;42.134;24.708;2023-12-20T07:25:52;99480.03;;;15.12;50.78
2681;BME280;1350;42.134;24.708;2023-12-20T07:28:19;99474.50;;;15.51;50.25
2681;BME280;1350;42.134;24.708;2023-12-20T07:30:48;99476.06;;;15.77;49.38
2681;BME280;1350;42.134;24.708;2023-12-20T07:33:16;99470.91;;;15.98;49.04
2681;BME280;1350;42.134;24.708;2023-12-20T07:35:43;99471.28;;;16.04;48.58
2681;BME280;1350;42.134;24.708;2023-12-20T07:38:10;99478.56;;;16.37;47.98
2681;BME280;1350;42.134;24.708;2023-12-20T07:40:38;99476.94;;;16.69;47.26
2681;BME280;1350;42.134;24.708;2023-12-20T07:43:05;99471.22;;;16.96;46.75
2681;BME280;1350;42.134;24.708;2023-12-20T07:45:32;99473.53;;;17.11;46.73
2681;BME280;1350;42.134;24.708;2023-12-20T07:48:00;99472.41;;;17.25;46.44
2681;BME280;1350;42.134;24.708;2023-12-20T07:50:27;99460.81;;;17.46;46.01
2681;BME280;1350;42.134;24.708;2023-12-20T07:52:54;99457.88;;;17.49;45.76
2681;BME280;1350;42.134;24.708;2023-12-20T07:55:21;99455.22;;;17.70;45.79
2681;BME280;1350;42.134;24.708;2023-12-20T07:57:50;99460.41;;;17.82;45.36
2681;BME280;1350;42.134;24.708;2023-12-20T08:00:18;99448.16;;;18.00;45.01
2681;BME280;1350;42.134;24.708;2023-12-20T08:02:45;99445.28;;;17.92;44.59
2681;BME280;1350;42.134;24.708;2023-12-20T08:05:13;99448.84;;;17.82;45.01
2681;BME280;1350;42.134;24.708;2023-12-20T08:07:40;99449.50;;;17.95;44.66
2681;BME280;1350;42.134;24.708;2023-12-20T08:10:08;99454.66;;;17.87;45.03
2681;BME280;1350;42.134;24.708;2023-12-20T08:12:35;99446.75;;;17.85;44.79
2681;BME280;1350;42.134;24.708;2023-12-20T08:15:02;99437.41;;;17.80;45.19
2681;BME280;1350;42.134;24.708;2023-12-20T08:17:29;99435.91;;;18.07;45.39
2681;BME280;1350;42.134;24.708;2023-12-20T08:19:56;99438.78;;;17.95;44.82
2681;BME280;1350;42.134;24.708;2023-12-20T08:22:25;99434.75;;;17.69;45.34
2681;BME280;1350;42.134;24.708;2023-12-20T08:24:52;99430.94;;;18.03;44.85
2681;BME280;1350;42.134;24.708;2023-12-20T08:27:19;99442.13;;;18.28;45.05
2681;BME280;1350;42.134;24.708;2023-12-20T08:29:46;99431.63;;;18.67;45.79
2681;BME280;1350;42.134;24.708;2023-12-20T08:32:15;99429.78;;;18.97;44.43
2681;BME280;1350;42.134;24.708;2023-12-20T08:34:42;99421.72;;;19.07;43.84
2681;BME280;1350;42.134;24.708;2023-12-20T08:37:09;99418.72;;;18.61;44.21
2681;BME280;1350;42.134;24.708;2023-12-20T08:39:37;99408.66;;;17.91;44.36
2681;BME280;1350;42.134;24.708;2023-12-20T08:42:04;99410.78;;;17.14;45.82
2681;BME280;1350;42.134;24.708;2023-12-20T08:44:31;99409.97;;;16.47;46.65
2681;BME280;1350;42.134;24.708;2023-12-20T08:46:58;99401.97;;;15.32;48.30
2681;BME280;1350;42.134;24.708;2023-12-20T08:49:25;99395.06;;;14.45;50.04
2681;BME280;1350;42.134;24.708;2023-12-20T08:51:53;99386.22;;;13.94;51.23
2681;BME280;1350;42.134;24.708;2023-12-20T08:54:20;99385.56;;;13.91;52.26
2681;BME280;1350;42.134;24.708;2023-12-20T08:56:48;99372.25;;;14.03;52.29
2681;BME280;1350;42.134;24.708;2023-12-20T08:59:15;99370.53;;;14.27;52.13
2681;BME280;1350;42.134;24.708;2023-12-20T09:01:44;99367.88;;;14.27;52.29
2681;BME280;1350;42.134;24.708;2023-12-20T09:04:12;99360.50;;;14.18;52.21
2681;BME280;1350;42.134;24.708;2023-12-20T09:06:38;99359.88;;;14.27;52.80
2681;BME280;1350;42.134;24.708;2023-12-20T09:09:05;99353.25;;;13.95;52.96
2681;BME280;1350;42.134;24.708;2023-12-20T09:11:35;99343.41;;;13.45;53.52
2681;BME280;1350;42.134;24.708;2023-12-20T09:14:05;99339.75;;;13.34;53.47
2681;BME280;1350;42.134;24.708;2023-12-20T09:16:32;99330.91;;;13.33;53.61
2681;BME280;1350;42.134;24.708;2023-12-20T09:18:59;99331.28;;;13.15;55.05
2681;BME280;1350;42.134;24.708;2023-12-20T09:21:26;99326.84;;;13.15;55.91
2681;BME280;1350;42.134;24.708;2023-12-20T09:23:53;99316.38;;;13.77;54.16
2681;BME280;1350;42.134;24.708;2023-12-20T09:26:20;99318.97;;;14.52;52.54
2681;BME280;1350;42.134;24.708;2023-12-20T09:28:49;99321.41;;;14.91;51.92
2681;BME280;1350;42.134;24.708;2023-12-20T09:31:17;99324.25;;;15.11;51.04
2681;BME280;1350;42.134;24.708;2023-12-20T09:33:44;99317.59;;;15.06;50.28
2681;BME280;1350;42.134;24.708;2023-12-20T09:36:11;99311.31;;;15.18;50.25
2681;BME280;1350;42.134;24.708;2023-12-20T09:38:38;99303.56;;;15.61;49.21
2681;BME280;1350;42.134;24.708;2023-12-20T09:41:06;99293.13;;;15.47;48.82
2681;BME280;1350;42.134;24.708;2023-12-20T09:43:35;99294.72;;;15.60;48.68
2681;BME280;1350;42.134;24.708;2023-12-20T09:46:06;99276.28;;;16.23;48.01
2681;BME280;1350;42.134;24.708;2023-12-20T09:48:36;99283.59;;;16.10;47.91
2681;BME280;1350;42.134;24.708;2023-12-20T09:51:03;99272.91;;;16.86;46.97
2681;BME280;1350;42.134;24.708;2023-12-20T09:53:32;99269.63;;;17.14;46.19
2681;BME280;1350;42.134;24.708;2023-12-20T09:56:00;99261.72;;;16.81;46.57
2681;BME280;1350;42.134;24.708;2023-12-20T09:58:28;99257.72;;;17.07;45.93
2681;BME280;1350;42.134;24.708;2023-12-20T10:00:57;99255.13;;;17.37;45.47
2681;BME280;1350;42.134;24.708;2023-12-20T10:03:25;99258.16;;;17.94;44.71
2681;BME280;1350;42.134;24.708;2023-12-20T10:05:56;99244.53;;;18.07;44.74
2681;BME280;1350;42.134;24.708;2023-12-20T10:08:24;99243.28;;;18.51;43.69
2681;BME280;1350;42.134;24.708;2023-12-20T10:10:52;99232.75;;;19.06;43.40
2681;BME280;1350;42.134;24.708;2023-12-20T10:13:19;99229.19;;;19.34;42.07
2681;BME280;1350;42.134;24.708;2023-12-20T10:15:46;99224.13;;;19.31;41.95
2681;BME280;1350;42.134;24.708;2023-12-20T10:18:13;99223.69;;;19.17;42.16
2681;BME280;1350;42.134;24.708;2023-12-20T10:20:41;99222.41;;;18.73;42.63
2681;BME280;1350;42.134;24.708;2023-12-20T10:23:10;99207.38;;;18.52;43.21
2681;BME280;1350;42.134;24.708;2023-12-20T10:25:38;99208.81;;;18.65;43.47
2681;BME280;1350;42.134;24.708;2023-12-20T10:28:12;99200.75;;;18.46;42.86
2681;BME280;1350;42.134;24.708;2023-12-20T10:30:40;99203.31;;;18.08;43.59
2681;BME280;1350;42.134;24.708;2023-12-20T10:33:08;99195.53;;;18.44;43.01
2681;BME280;1350;42.134;24.708;2023-12-20T10:35:35;99200.78;;;18.75;42.56
2681;BME280;1350;42.134;24.708;2023-12-20T10:38:04;99189.59;;;18.98;42.43
2681;BME280;1350;42.134;24.708;2023-12-20T10:40:34;99176.16;;;19.17;42.38
2681;BME280;1350;42.134;24.708;2023-12-20T10:43:02;99174.88;;;19.40;42.07
2681;BME280;1350;42.134;24.708;2023-12-20T10:45:30;99158.00;;;19.84;40.96
2681;BME280;1350;42.134;24.708;2023-12-20T10:47:57;99152.50;;;20.13;40.66
2681;BME280;1350;42.134;24.708;2023-12-20T10:50:26;99157.88;;;19.40;40.86
2681;BME280;1350;42.134;24.708;2023-12-20T10:52:54;99147.19;;;18.73;42.44
2681;BME280;1350;42.134;24.708;2023-12-20T10:55:22;99142.09;;;18.41;43.36
2681;BME280;1350;42.134;24.708;2023-12-20T10:57:51;99139.69;;;18.38;43.46
2681;BME280;1350;42.134;24.708;2023-12-20T11:00:19;99122.63;;;17.51;44.89
2681;BME280;1350;42.134;24.708;2023-12-20T11:02:49;99130.06;;;17.27;45.03
2681;BME280;1350;42.134;24.708;2023-12-20T11:05:25;99123.66;;;16.88;45.88
2681;BME280;1350;42.134;24.708;2023-12-20T11:07:59;99119.47;;;16.43;46.48
2681;BME280;1350;42.134;24.708;2023-12-20T11:10:31;99117.25;;;16.05;47.27
2681;BME280;1350;42.134;24.708;2023-12-20T11:13:08;99112.63;;;16.50;47.23
2681;BME280;1350;42.134;24.708;2023-12-20T11:15:37;99105.72;;;16.47;47.50
2681;BME280;1350;42.134;24.708;2023-12-20T11:18:07;99099.44;;;15.84;49.04
2681;BME280;1350;42.134;24.708;2023-12-20T11:20:36;99099.75;;;15.48;50.20
2681;BME280;1350;42.134;24.708;2023-12-20T11:23:04;99094.72;;;15.21;50.89
2681;BME280;1350;42.134;24.708;2023-12-20T11:25:46;99099.13;;;15.55;51.12
2681;BME280;1350;42.134;24.708;2023-12-20T11:28:15;99090.47;;;15.74;50.81
2681;BME280;1350;42.134;24.708;2023-12-20T11:30:47;99084.91;;;15.55;50.98
2681;BME280;1350;42.134;24.708;2023-12-20T11:33:14;99077.00;;;15.75;51.09
2681;BME280;1350;42.134;24.708;2023-12-20T11:35:42;99074.91;;;16.21;50.37
2681;BME280;1350;42.134;24.708;2023-12-20T11:38:09;99071.53;;;16.51;49.05
2681;BME280;1350;42.134;24.708;2023-12-20T11:40:36;99065.97;;;16.32;48.99
2681;BME280;1350;42.134;24.708;2023-12-20T11:43:04;99063.84;;;16.57;48.41
2681;BME280;1350;42.134;24.708;2023-12-20T11:45:33;99056.91;;;16.75;48.03
2681;BME280;1350;42.134;24.708;2023-12-20T11:48:02;99058.72;;;16.75;47.74
2681;BME280;1350;42.134;24.708;2023-12-20T11:50:29;99052.72;;;16.82;47.88
2681;BME280;1350;42.134;24.708;2023-12-20T11:52:56;99049.19;;;16.61;48.82
2681;BME280;1350;42.134;24.708;2023-12-20T11:55:24;99045.78;;;16.80;48.07
2681;BME280;1350;42.134;24.708;2023-12-20T11:57:51;99036.78;;;16.81;47.53
2681;BME280;1350;42.134;24.708;2023-12-20T12:00:19;99025.63;;;16.55;47.89
2681;BME280;1350;42.134;24.708;2023-12-20T12:02:58;99024.69;;;16.87;47.00
2681;BME280;1350;42.134;24.708;2023-12-20T12:05:27;99019.41;;;16.55;47.08
2681;BME280;1350;42.134;24.708;2023-12-20T12:07:54;99017.19;;;16.19;48.06
2681;BME280;1350;42.134;24.708;2023-12-20T12:10:21;99013.94;;;16.04;48.08
2681;BME280;1350;42.134;24.708;2023-12-20T12:12:48;99007.41;;;15.97;47.87
2681;BME280;1350;42.134;24.708;2023-12-20T12:15:15;99008.19;;;15.88;47.78
2681;BME280;1350;42.134;24.708;2023-12-20T12:17:43;99004.53;;;15.89;47.75
2681;BME280;1350;42.134;24.708;2023-12-20T12:20:11;99003.19;;;15.84;47.95
2681;BME280;1350;42.134;24.708;2023-12-20T12:22:40;99008.31;;;15.22;49.55
2681;BME280;1350;42.134;24.708;2023-12-20T12:25:11;99000.19;;;14.79;50.99
2681;BME280;1350;42.134;24.708;2023-12-20T12:27:40;98995.66;;;14.36;52.35
2681;BME280;1350;42.134;24.708;2023-12-20T12:30:08;98993.06;;;14.00;53.45
2681;BME280;1350;42.134;24.708;2023-12-20T12:32:38;98993.88;;;13.89;53.84
2681;BME280;1350;42.134;24.708;2023-12-20T12:35:06;98990.69;;;14.08;53.84
2681;BME280;1350;42.134;24.708;2023-12-20T12:37:38;98996.31;;;13.92;54.29
2681;BME280;1350;42.134;24.708;2023-12-20T12:40:06;98988.66;;;14.22;53.68
2681;BME280;1350;42.134;24.708;2023-12-20T12:42:33;98983.53;;;14.08;54.29
2681;BME280;1350;42.134;24.708;2023-12-20T12:45:00;98984.44;;;13.85;55.16
2681;BME280;1350;42.134;24.708;2023-12-20T12:47:27;98977.69;;;14.03;55.37
2681;BME280;1350;42.134;24.708;2023-12-20T12:49:54;98977.00;;;14.12;54.82
2681;BME280;1350;42.134;24.708;2023-12-20T12:52:21;98975.44;;;14.10;54.98
2681;BME280;1350;42.134;24.708;2023-12-20T12:54:50;98973.00;;;14.18;55.24
2681;BME280;1350;42.134;24.708;2023-12-20T12:57:17;98979.94;;;14.20;54.91
2681;BME280;1350;42.134;24.708;2023-12-20T12:59:44;98972.19;;;14.17;54.72
2681;BME280;1350;42.134;24.708;2023-12-20T13:02:12;98963.78;;;13.76;55.61
2681;BME280;1350;42.134;24.708;2023-12-20T13:04:39;98968.50;;;13.49;56.34
2681;BME280;1350;42.134;24.708;2023-12-20T13:07:06;98964.13;;;13.24;58.26
2681;BME280;1350;42.134;24.708;2023-12-20T13:09:36;98964.59;;;13.42;58.49
2681;BME280;1350;42.134;24.708;2023-12-20T13:12:06;98965.59;;;13.28;58.89
2681;BME280;1350;42.134;24.708;2023-12-20T13:14:34;98964.00;;;13.26;59.17